sensor_id;sensor_type;location;lat;lon;timestamp;temperature;humidity
75824;DHT22;64457;51.976;9.834;2023-05-10T00:02:12;17.60;65.50
75824;DHT22;64457;51.976;9.834;2023-05-10T00:04:41;17.70;64.70
75824;DHT22;64457;51.976;9.834;2023-05-10T00:07:08;17.80;64.70
75824;DHT22;64457;51.976;9.834;2023-05-10T00:09:36;17.90;64.40
75824;DHT22;64457;51.976;9.834;2023-05-10T00:12:03;18.00;64.40
75824;DHT22;64457;51.976;9.834;2023-05-10T00:14:31;18.10;65.40
75824;DHT22;64457;51.976;9.834;2023-05-10T00:16:59;18.20;64.90
75824;DHT22;64457;51.976;9.834;2023-05-10T00:19:28;18.20;66.20
75824;DHT22;64457;51.976;9.834;2023-05-10T00:21:57;18.20;65.80
75824;DHT22;64457;51.976;9.834;2023-05-10T00:24:24;18.20;65.70
75824;DHT22;64457;51.976;9.834;2023-05-10T00:26:51;17.90;64.20
75824;DHT22;64457;51.976;9.834;2023-05-10T00:29:18;17.90;64.70
75824;DHT22;64457;51.976;9.834;2023-05-10T00:31:46;17.80;64.80
75824;DHT22;64457;51.976;9.834;2023-05-10T00:34:13;17.90;66.30
75824;DHT22;64457;51.976;9.834;2023-05-10T00:36:40;18.00;66.30
75824;DHT22;64457;51.976;9.834;2023-05-10T00:39:09;17.90;65.30
75824;DHT22;64457;51.976;9.834;2023-05-10T00:41:36;17.70;66.00
75824;DHT22;64457;51.976;9.834;2023-05-10T00:44:03;17.50;66.60
75824;DHT22;64457;51.976;9.834;2023-05-10T00:46:31;17.30;67.30
75824;DHT22;64457;51.976;9.834;2023-05-10T00:48:58;17.40;66.70
75824;DHT22;64457;51.976;9.834;2023-05-10T00:51:28;17.50;65.90
75824;DHT22;64457;51.976;9.834;2023-05-10T00:53:55;17.50;65.60
75824;DHT22;64457;51.976;9.834;2023-05-10T00:56:24;17.60;65.20
75824;DHT22;64457;51.976;9.834;2023-05-10T00:58:52;17.80;64.30
75824;DHT22;64457;51.976;9.834;2023-05-10T01:01:20;17.80;63.80
75824;DHT22;64457;51.976;9.834;2023-05-10T01:03:47;17.90;63.90
75824;DHT22;64457;51.976;9.834;2023-05-10T01:06:15;17.90;63.20
75824;DHT22;64457;51.976;9.834;2023-05-10T01:08:42;17.90;63.90
75824;DHT22;64457;51.976;9.834;2023-05-10T01:11:09;18.10;62.90
75824;DHT22;64457;51.976;9.834;2023-05-10T01:13:39;18.00;60.40
75824;DHT22;64457;51.976;9.834;2023-05-10T01:16:08;18.00;61.80
75824;DHT22;64457;51.976;9.834;2023-05-10T01:18:38;17.90;61.50
75824;DHT22;64457;51.976;9.834;2023-05-10T01:21:19;17.80;61.00
75824;DHT22;64457;51.976;9.834;2023-05-10T01:30:42;17.90;61.10
75824;DHT22;64457;51.976;9.834;2023-05-10T01:33:30;17.60;60.50
75824;DHT22;64457;51.976;9.834;2023-05-10T01:36:06;17.70;61.20
75824;DHT22;64457;51.976;9.834;2023-05-10T01:38:41;17.70;60.90
75824;DHT22;64457;51.976;9.834;2023-05-10T01:41:16;17.80;60.20
75824;DHT22;64457;51.976;9.834;2023-05-10T01:43:52;18.10;61.70
75824;DHT22;64457;51.976;9.834;2023-05-10T01:46:28;18.40;61.70
75824;DHT22;64457;51.976;9.834;2023-05-10T01:49:02;18.30;59.70
75824;DHT22;64457;51.976;9.834;2023-05-10T01:51:38;17.90;60.50
75824;DHT22;64457;51.976;9.834;2023-05-10T01:54:08;18.20;61.20
75824;DHT22;64457;51.976;9.834;2023-05-10T01:56:38;18.40;59.30
75824;DHT22;64457;51.976;9.834;2023-05-10T01:59:12;18.30;59.90
75824;DHT22;64457;51.976;9.834;2023-05-10T02:01:43;18.40;60.90
75824;DHT22;64457;51.976;9.834;2023-05-10T02:04:15;18.60;61.40
75824;DHT22;64457;51.976;9.834;2023-05-10T02:06:45;18.80;61.20
75824;DHT22;64457;51.976;9.834;2023-05-10T02:09:14;18.90;60.60
75824;DHT22;64457;51.976;9.834;2023-05-10T02:11:43;19.00;60.40
75824;DHT22;64457;51.976;9.834;2023-05-10T02:14:11;18.90;58.90
75824;DHT22;64457;51.976;9.834;2023-05-10T02:16:39;18.90;60.50
75824;DHT22;64457;51.976;9.834;2023-05-10T02:19:07;18.90;59.60
75824;DHT22;64457;51.976;9.834;2023-05-10T02:21:37;18.60;59.60
75824;DHT22;64457;51.976;9.834;2023-05-10T02:24:07;18.50;60.00
75824;DHT22;64457;51.976;9.834;2023-05-10T02:26:36;18.20;60.40
75824;DHT22;64457;51.976;9.834;2023-05-10T02:29:05;18.30;60.10
75824;DHT22;64457;51.976;9.834;2023-05-10T02:31:34;18.20;60.60
75824;DHT22;64457;51.976;9.834;2023-05-10T02:34:04;18.30;61.30
75824;DHT22;64457;51.976;9.834;2023-05-10T02:36:33;18.40;60.50
75824;DHT22;64457;51.976;9.834;2023-05-10T02:39:02;18.40;60.50
75824;DHT22;64457;51.976;9.834;2023-05-10T02:41:32;18.40;60.40
75824;DHT22;64457;51.976;9.834;2023-05-10T02:44:01;18.30;61.00
75824;DHT22;64457;51.976;9.834;2023-05-10T02:46:29;18.40;60.90
75824;DHT22;64457;51.976;9.834;2023-05-10T02:48:57;18.50;61.00
75824;DHT22;64457;51.976;9.834;2023-05-10T02:51:25;18.60;61.40
75824;DHT22;64457;51.976;9.834;2023-05-10T02:53:56;18.70;61.70
75824;DHT22;64457;51.976;9.834;2023-05-10T02:56:29;18.80;62.20
75824;DHT22;64457;51.976;9.834;2023-05-10T02:58:58;18.80;60.70
75824;DHT22;64457;51.976;9.834;2023-05-10T03:01:25;18.90;61.90
75824;DHT22;64457;51.976;9.834;2023-05-10T03:03:53;18.90;61.60
75824;DHT22;64457;51.976;9.834;2023-05-10T03:06:20;19.00;61.40
75824;DHT22;64457;51.976;9.834;2023-05-10T03:08:48;18.90;60.90
75824;DHT22;64457;51.976;9.834;2023-05-10T03:11:28;18.90;62.00
75824;DHT22;64457;51.976;9.834;2023-05-10T03:14:10;18.90;62.60
75824;DHT22;64457;51.976;9.834;2023-05-10T03:16:45;18.90;63.20
75824;DHT22;64457;51.976;9.834;2023-05-10T03:19:17;18.80;64.10
75824;DHT22;64457;51.976;9.834;2023-05-10T03:21:52;18.80;62.90
75824;DHT22;64457;51.976;9.834;2023-05-10T03:24:21;18.80;64.60
75824;DHT22;64457;51.976;9.834;2023-05-10T03:26:56;18.50;63.00
75824;DHT22;64457;51.976;9.834;2023-05-10T03:29:28;18.10;62.80
75824;DHT22;64457;51.976;9.834;2023-05-10T03:31:57;18.10;62.30
75824;DHT22;64457;51.976;9.834;2023-05-10T03:34:25;18.20;64.60
75824;DHT22;64457;51.976;9.834;2023-05-10T03:36:52;18.30;64.00
75824;DHT22;64457;51.976;9.834;2023-05-10T03:39:20;18.40;64.40
75824;DHT22;64457;51.976;9.834;2023-05-10T03:41:47;18.50;64.20
75824;DHT22;64457;51.976;9.834;2023-05-10T03:44:16;18.60;64.60
75824;DHT22;64457;51.976;9.834;2023-05-10T03:46:43;18.70;62.90
75824;DHT22;64457;51.976;9.834;2023-05-10T03:49:11;18.70;62.40
75824;DHT22;64457;51.976;9.834;2023-05-10T03:51:39;18.60;63.10
75824;DHT22;64457;51.976;9.834;2023-05-10T03:54:06;18.70;63.90
75824;DHT22;64457;51.976;9.834;2023-05-10T03:56:33;18.40;62.80
75824;DHT22;64457;51.976;9.834;2023-05-10T03:59:00;18.20;63.40
75824;DHT22;64457;51.976;9.834;2023-05-10T04:01:34;18.20;63.40
75824;DHT22;64457;51.976;9.834;2023-05-10T04:04:01;18.30;65.00
75824;DHT22;64457;51.976;9.834;2023-05-10T04:06:29;18.50;65.10
75824;DHT22;64457;51.976;9.834;2023-05-10T04:08:56;18.60;64.30
75824;DHT22;64457;51.976;9.834;2023-05-10T04:11:25;18.60;63.80
75824;DHT22;64457;51.976;9.834;2023-05-10T04:13:52;18.40;65.30
75824;DHT22;64457;51.976;9.834;2023-05-10T04:16:20;18.00;66.70
75824;DHT22;64457;51.976;9.834;2023-05-10T04:18:48;17.90;68.40
75824;DHT22;64457;51.976;9.834;2023-05-10T04:21:16;17.70;70.70
75824;DHT22;64457;51.976;9.834;2023-05-10T04:23:43;17.50;72.40
75824;DHT22;64457;51.976;9.834;2023-05-10T04:26:10;17.50;74.70
75824;DHT22;64457;51.976;9.834;2023-05-10T04:28:37;17.10;76.80
75824;DHT22;64457;51.976;9.834;2023-05-10T04:31:06;16.80;78.20
75824;DHT22;64457;51.976;9.834;2023-05-10T04:33:35;16.90;79.90
75824;DHT22;64457;51.976;9.834;2023-05-10T04:36:05;16.90;80.70
75824;DHT22;64457;51.976;9.834;2023-05-10T04:38:32;16.90;81.60
75824;DHT22;64457;51.976;9.834;2023-05-10T04:41:07;16.70;80.30
75824;DHT22;64457;51.976;9.834;2023-05-10T04:43:35;16.60;80.70
75824;DHT22;64457;51.976;9.834;2023-05-10T04:46:02;16.60;81.90
75824;DHT22;64457;51.976;9.834;2023-05-10T04:48:30;16.70;83.50
75824;DHT22;64457;51.976;9.834;2023-05-10T04:50:57;16.80;83.00
75824;DHT22;64457;51.976;9.834;2023-05-10T04:53:25;16.40;82.40
75824;DHT22;64457;51.976;9.834;2023-05-10T04:55:53;16.40;83.70
75824;DHT22;64457;51.976;9.834;2023-05-10T04:58:20;16.50;83.50
75824;DHT22;64457;51.976;9.834;2023-05-10T05:00:47;16.60;85.00
75824;DHT22;64457;51.976;9.834;2023-05-10T05:03:15;16.50;87.20
75824;DHT22;64457;51.976;9.834;2023-05-10T05:05:42;16.20;87.90
75824;DHT22;64457;51.976;9.834;2023-05-10T05:08:10;15.60;90.40
75824;DHT22;64457;51.976;9.834;2023-05-10T05:10:38;15.50;91.20
75824;DHT22;64457;51.976;9.834;2023-05-10T05:13:06;15.10;91.70
75824;DHT22;64457;51.976;9.834;2023-05-10T05:15:33;15.10;92.60
75824;DHT22;64457;51.976;9.834;2023-05-10T05:18:00;14.60;93.50
75824;DHT22;64457;51.976;9.834;2023-05-10T05:20:28;14.40;94.10
75824;DHT22;64457;51.976;9.834;2023-05-10T05:22:58;14.40;94.90
75824;DHT22;64457;51.976;9.834;2023-05-10T05:25:25;14.70;94.60
75824;DHT22;64457;51.976;9.834;2023-05-10T05:27:54;14.90;93.90
75824;DHT22;64457;51.976;9.834;2023-05-10T05:30:21;14.90;94.20
75824;DHT22;64457;51.976;9.834;2023-05-10T05:32:49;15.30;94.40
75824;DHT22;64457;51.976;9.834;2023-05-10T05:35:16;15.00;94.10
75824;DHT22;64457;51.976;9.834;2023-05-10T05:37:43;15.30;94.20
75824;DHT22;64457;51.976;9.834;2023-05-10T05:40:12;15.80;93.80
75824;DHT22;64457;51.976;9.834;2023-05-10T05:42:40;16.30;93.00
75824;DHT22;64457;51.976;9.834;2023-05-10T05:45:09;16.40;92.10
75824;DHT22;64457;51.976;9.834;2023-05-10T05:47:38;16.20;92.80
75824;DHT22;64457;51.976;9.834;2023-05-10T05:50:06;16.20;93.10
75824;DHT22;64457;51.976;9.834;2023-05-10T05:52:34;16.30;92.90
75824;DHT22;64457;51.976;9.834;2023-05-10T05:55:01;16.30;92.60
75824;DHT22;64457;51.976;9.834;2023-05-10T05:57:29;16.50;92.70
75824;DHT22;64457;51.976;9.834;2023-05-10T05:59:57;16.50;93.30
75824;DHT22;64457;51.976;9.834;2023-05-10T06:02:25;16.70;93.30
75824;DHT22;64457;51.976;9.834;2023-05-10T06:04:52;16.90;93.20
75824;DHT22;64457;51.976;9.834;2023-05-10T06:07:20;17.00;92.70
75824;DHT22;64457;51.976;9.834;2023-05-10T06:09:47;17.10;92.90
75824;DHT22;64457;51.976;9.834;2023-05-10T06:12:14;17.10;92.60
75824;DHT22;64457;51.976;9.834;2023-05-10T06:14:41;16.80;93.40
75824;DHT22;64457;51.976;9.834;2023-05-10T06:17:08;17.00;93.50
75824;DHT22;64457;51.976;9.834;2023-05-10T06:19:37;17.20;93.30
75824;DHT22;64457;51.976;9.834;2023-05-10T06:22:04;17.20;93.10
75824;DHT22;64457;51.976;9.834;2023-05-10T06:24:32;17.10;93.70
75824;DHT22;64457;51.976;9.834;2023-05-10T06:26:59;17.20;93.90
75824;DHT22;64457;51.976;9.834;2023-05-10T06:29:27;17.20;93.60
75824;DHT22;64457;51.976;9.834;2023-05-10T06:31:54;17.30;93.90
75824;DHT22;64457;51.976;9.834;2023-05-10T06:34:22;17.40;93.30
75824;DHT22;64457;51.976;9.834;2023-05-10T06:36:50;17.50;93.50
75824;DHT22;64457;51.976;9.834;2023-05-10T06:39:18;17.60;93.10
75824;DHT22;64457;51.976;9.834;2023-05-10T06:41:45;17.70;93.30
75824;DHT22;64457;51.976;9.834;2023-05-10T06:44:13;17.60;93.50
75824;DHT22;64457;51.976;9.834;2023-05-10T06:46:40;17.70;93.30
75824;DHT22;64457;51.976;9.834;2023-05-10T06:49:08;17.80;93.70
75824;DHT22;64457;51.976;9.834;2023-05-10T06:51:35;17.40;93.70
75824;DHT22;64457;51.976;9.834;2023-05-10T06:54:04;17.20;94.40
75824;DHT22;64457;51.976;9.834;2023-05-10T06:56:31;17.20;94.50
75824;DHT22;64457;51.976;9.834;2023-05-10T06:58:58;17.40;94.70
75824;DHT22;64457;51.976;9.834;2023-05-10T07:01:25;17.50;94.10
75824;DHT22;64457;51.976;9.834;2023-05-10T07:03:52;17.70;94.00
75824;DHT22;64457;51.976;9.834;2023-05-10T07:06:21;17.90;93.90
75824;DHT22;64457;51.976;9.834;2023-05-10T07:08:48;18.10;92.70
75824;DHT22;64457;51.976;9.834;2023-05-10T07:11:16;18.10;93.20
75824;DHT22;64457;51.976;9.834;2023-05-10T07:13:44;18.20;93.30
75824;DHT22;64457;51.976;9.834;2023-05-10T07:16:12;18.20;93.10
75824;DHT22;64457;51.976;9.834;2023-05-10T07:18:39;17.60;94.00
75824;DHT22;64457;51.976;9.834;2023-05-10T07:21:06;17.30;94.40
75824;DHT22;64457;51.976;9.834;2023-05-10T07:23:34;17.00;95.40
75824;DHT22;64457;51.976;9.834;2023-05-10T07:26:01;17.00;96.00
75824;DHT22;64457;51.976;9.834;2023-05-10T07:28:30;17.30;95.70
75824;DHT22;64457;51.976;9.834;2023-05-10T07:30:57;17.40;95.30
75824;DHT22;64457;51.976;9.834;2023-05-10T07:33:24;17.40;95.50
75824;DHT22;64457;51.976;9.834;2023-05-10T07:35:51;17.00;96.10
75824;DHT22;64457;51.976;9.834;2023-05-10T07:38:18;17.10;96.50
75824;DHT22;64457;51.976;9.834;2023-05-10T07:40:46;17.30;96.00
75824;DHT22;64457;51.976;9.834;2023-05-10T07:43:13;17.30;96.50
75824;DHT22;64457;51.976;9.834;2023-05-10T07:45:41;17.60;96.30
75824;DHT22;64457;51.976;9.834;2023-05-10T07:48:09;17.90;95.80
75824;DHT22;64457;51.976;9.834;2023-05-10T07:50:36;18.10;95.60
75824;DHT22;64457;51.976;9.834;2023-05-10T07:53:03;17.90;95.30
75824;DHT22;64457;51.976;9.834;2023-05-10T07:55:30;18.00;95.60
75824;DHT22;64457;51.976;9.834;2023-05-10T07:57:57;18.30;95.20
75824;DHT22;64457;51.976;9.834;2023-05-10T08:00:26;18.60;94.20
75824;DHT22;64457;51.976;9.834;2023-05-10T08:02:55;18.80;93.90
75824;DHT22;64457;51.976;9.834;2023-05-10T08:05:22;18.80;93.90
75824;DHT22;64457;51.976;9.834;2023-05-10T08:07:49;18.90;94.20
75824;DHT22;64457;51.976;9.834;2023-05-10T08:10:16;19.00;93.90
75824;DHT22;64457;51.976;9.834;2023-05-10T08:12:44;19.10;92.90
75824;DHT22;64457;51.976;9.834;2023-05-10T08:15:11;19.10;93.60
75824;DHT22;64457;51.976;9.834;2023-05-10T08:17:38;19.10;92.40
75824;DHT22;64457;51.976;9.834;2023-05-10T08:20:07;19.00;93.10
75824;DHT22;64457;51.976;9.834;2023-05-10T08:22:35;18.50;93.80
75824;DHT22;64457;51.976;9.834;2023-05-10T08:25:03;18.20;95.30
75824;DHT22;64457;51.976;9.834;2023-05-10T08:27:31;18.40;94.60
75824;DHT22;64457;51.976;9.834;2023-05-10T08:29:58;18.60;94.20
75824;DHT22;64457;51.976;9.834;2023-05-10T08:32:25;18.90;93.80
75824;DHT22;64457;51.976;9.834;2023-05-10T08:34:53;19.10;94.00
75824;DHT22;64457;51.976;9.834;2023-05-10T08:37:22;19.20;93.20
75824;DHT22;64457;51.976;9.834;2023-05-10T08:39:50;19.10;93.50
75824;DHT22;64457;51.976;9.834;2023-05-10T08:42:19;19.20;93.00
75824;DHT22;64457;51.976;9.834;2023-05-10T08:44:49;19.40;92.40
75824;DHT22;64457;51.976;9.834;2023-05-10T08:47:17;19.30;92.20
75824;DHT22;64457;51.976;9.834;2023-05-10T08:49:47;19.40;92.30
75824;DHT22;64457;51.976;9.834;2023-05-10T08:52:17;19.10;92.50
75824;DHT22;64457;51.976;9.834;2023-05-10T08:54:47;18.70;93.00
75824;DHT22;64457;51.976;9.834;2023-05-10T08:57:14;18.40;93.40
75824;DHT22;64457;51.976;9.834;2023-05-10T08:59:41;18.10;94.10
75824;DHT22;64457;51.976;9.834;2023-05-10T09:02:10;18.30;94.10
75824;DHT22;64457;51.976;9.834;2023-05-10T09:04:38;18.60;94.10
75824;DHT22;64457;51.976;9.834;2023-05-10T09:07:06;18.90;92.70
75824;DHT22;64457;51.976;9.834;2023-05-10T09:09:33;19.20;92.90
75824;DHT22;64457;51.976;9.834;2023-05-10T09:12:03;19.10;92.70
75824;DHT22;64457;51.976;9.834;2023-05-10T09:14:34;18.80;93.60
75824;DHT22;64457;51.976;9.834;2023-05-10T09:17:02;19.00;93.30
75824;DHT22;64457;51.976;9.834;2023-05-10T09:19:30;19.40;92.60
75824;DHT22;64457;51.976;9.834;2023-05-10T09:21:57;19.70;92.30
75824;DHT22;64457;51.976;9.834;2023-05-10T09:24:26;19.50;91.90
75824;DHT22;64457;51.976;9.834;2023-05-10T09:26:53;19.60;92.40
75824;DHT22;64457;51.976;9.834;2023-05-10T09:29:22;19.70;91.90
75824;DHT22;64457;51.976;9.834;2023-05-10T09:31:50;20.00;91.80
75824;DHT22;64457;51.976;9.834;2023-05-10T09:34:28;20.20;91.30
75824;DHT22;64457;51.976;9.834;2023-05-10T09:36:58;20.40;90.60
75824;DHT22;64457;51.976;9.834;2023-05-10T09:39:31;20.60;90.60
75824;DHT22;64457;51.976;9.834;2023-05-10T09:41:59;20.40;90.30
75824;DHT22;64457;51.976;9.834;2023-05-10T09:44:31;20.40;90.20
75824;DHT22;64457;51.976;9.834;2023-05-10T09:46:58;20.50;90.10
75824;DHT22;64457;51.976;9.834;2023-05-10T09:49:26;20.70;89.40
75824;DHT22;64457;51.976;9.834;2023-05-10T09:52:03;20.80;89.90
75824;DHT22;64457;51.976;9.834;2023-05-10T09:54:32;21.00;89.50
75824;DHT22;64457;51.976;9.834;2023-05-10T09:57:00;21.00;88.20
75824;DHT22;64457;51.976;9.834;2023-05-10T09:59:33;20.80;88.60
75824;DHT22;64457;51.976;9.834;2023-05-10T10:02:01;20.50;90.00
75824;DHT22;64457;51.976;9.834;2023-05-10T10:04:29;20.40;90.70
75824;DHT22;64457;51.976;9.834;2023-05-10T10:07:01;20.50;90.30
75824;DHT22;64457;51.976;9.834;2023-05-10T10:09:29;20.70;89.80
75824;DHT22;64457;51.976;9.834;2023-05-10T10:11:56;20.60;90.20
75824;DHT22;64457;51.976;9.834;2023-05-10T10:14:24;20.70;90.20
75824;DHT22;64457;51.976;9.834;2023-05-10T10:16:54;21.10;89.00
75824;DHT22;64457;51.976;9.834;2023-05-10T10:19:22;21.10;89.10
75824;DHT22;64457;51.976;9.834;2023-05-10T10:21:50;21.30;88.20
75824;DHT22;64457;51.976;9.834;2023-05-10T10:24:17;21.60;88.30
75824;DHT22;64457;51.976;9.834;2023-05-10T10:26:45;21.80;86.90
75824;DHT22;64457;51.976;9.834;2023-05-10T10:29:23;21.80;86.80
75824;DHT22;64457;51.976;9.834;2023-05-10T10:32:00;21.80;86.10
75824;DHT22;64457;51.976;9.834;2023-05-10T10:34:33;21.80;85.50
75824;DHT22;64457;51.976;9.834;2023-05-10T10:37:04;21.60;84.60
75824;DHT22;64457;51.976;9.834;2023-05-10T10:39:32;21.60;85.40
75824;DHT22;64457;51.976;9.834;2023-05-10T10:42:03;21.60;85.70
75824;DHT22;64457;51.976;9.834;2023-05-10T10:44:36;21.50;85.40
75824;DHT22;64457;51.976;9.834;2023-05-10T10:47:21;21.70;85.30
75824;DHT22;64457;51.976;9.834;2023-05-10T10:50:05;21.80;83.90
75824;DHT22;64457;51.976;9.834;2023-05-10T10:52:35;21.90;84.00
75824;DHT22;64457;51.976;9.834;2023-05-10T10:55:05;22.10;84.00
75824;DHT22;64457;51.976;9.834;2023-05-10T10:57:44;22.30;83.00
75824;DHT22;64457;51.976;9.834;2023-05-10T11:00:27;22.50;83.00
75824;DHT22;64457;51.976;9.834;2023-05-10T11:02:59;22.70;82.50
75824;DHT22;64457;51.976;9.834;2023-05-10T11:05:43;22.80;81.20
75824;DHT22;64457;51.976;9.834;2023-05-10T11:08:14;22.70;82.20
75824;DHT22;64457;51.976;9.834;2023-05-10T11:10:51;22.80;83.30
75824;DHT22;64457;51.976;9.834;2023-05-10T11:13:29;22.90;81.50
75824;DHT22;64457;51.976;9.834;2023-05-10T11:15:59;23.20;82.10
75824;DHT22;64457;51.976;9.834;2023-05-10T11:18:37;23.60;78.90
75824;DHT22;64457;51.976;9.834;2023-05-10T11:21:05;23.70;77.60
75824;DHT22;64457;51.976;9.834;2023-05-10T11:23:48;23.70;78.10
75824;DHT22;64457;51.976;9.834;2023-05-10T11:26:17;23.70;76.80
75824;DHT22;64457;51.976;9.834;2023-05-10T11:28:46;23.70;77.50
75824;DHT22;64457;51.976;9.834;2023-05-10T11:31:14;23.80;78.40
75824;DHT22;64457;51.976;9.834;2023-05-10T11:33:46;24.20;76.70
75824;DHT22;64457;51.976;9.834;2023-05-10T11:36:16;24.60;76.80
75824;DHT22;64457;51.976;9.834;2023-05-10T11:38:45;25.20;76.00
75824;DHT22;64457;51.976;9.834;2023-05-10T11:41:13;25.40;75.20
75824;DHT22;64457;51.976;9.834;2023-05-10T11:43:41;25.20;73.10
75824;DHT22;64457;51.976;9.834;2023-05-10T11:46:11;24.60;74.60
75824;DHT22;64457;51.976;9.834;2023-05-10T11:48:40;23.90;75.90
75824;DHT22;64457;51.976;9.834;2023-05-10T11:51:09;23.50;78.00
75824;DHT22;64457;51.976;9.834;2023-05-10T11:53:37;23.90;77.80
75824;DHT22;64457;51.976;9.834;2023-05-10T11:56:06;24.00;76.50
75824;DHT22;64457;51.976;9.834;2023-05-10T11:58:34;23.80;76.50
75824;DHT22;64457;51.976;9.834;2023-05-10T12:01:02;23.00;78.50
75824;DHT22;64457;51.976;9.834;2023-05-10T12:03:30;22.40;80.30
75824;DHT22;64457;51.976;9.834;2023-05-10T12:05:58;21.60;86.40
75824;DHT22;64457;51.976;9.834;2023-05-10T12:08:29;20.70;89.80
75824;DHT22;64457;51.976;9.834;2023-05-10T12:11:04;20.30;90.50
75824;DHT22;64457;51.976;9.834;2023-05-10T12:13:37;20.00;91.30
75824;DHT22;64457;51.976;9.834;2023-05-10T12:16:16;19.60;92.30
75824;DHT22;64457;51.976;9.834;2023-05-10T12:18:44;18.70;93.20
75824;DHT22;64457;51.976;9.834;2023-05-10T12:21:12;18.80;93.70
75824;DHT22;64457;51.976;9.834;2023-05-10T12:23:42;19.10;93.80
75824;DHT22;64457;51.976;9.834;2023-05-10T12:26:09;19.50;93.70
75824;DHT22;64457;51.976;9.834;2023-05-10T12:28:37;19.90;93.40
75824;DHT22;64457;51.976;9.834;2023-05-10T12:31:06;20.30;92.10
75824;DHT22;64457;51.976;9.834;2023-05-10T12:33:36;20.60;91.30
75824;DHT22;64457;51.976;9.834;2023-05-10T12:36:07;20.80;90.60
75824;DHT22;64457;51.976;9.834;2023-05-10T12:38:36;21.20;89.50
75824;DHT22;64457;51.976;9.834;2023-05-10T12:41:07;21.40;87.60
75824;DHT22;64457;51.976;9.834;2023-05-10T12:43:36;21.60;89.30
75824;DHT22;64457;51.976;9.834;2023-05-10T12:46:05;22.10;88.20
75824;DHT22;64457;51.976;9.834;2023-05-10T12:48:33;22.30;87.40
75824;DHT22;64457;51.976;9.834;2023-05-10T12:51:01;22.50;85.50
75824;DHT22;64457;51.976;9.834;2023-05-10T12:53:29;22.60;87.80
75824;DHT22;64457;51.976;9.834;2023-05-10T12:55:56;22.40;85.70
75824;DHT22;64457;51.976;9.834;2023-05-10T12:58:25;22.30;87.60
75824;DHT22;64457;51.976;9.834;2023-05-10T13:00:52;22.40;88.40
75824;DHT22;64457;51.976;9.834;2023-05-10T13:03:19;22.70;87.70
75824;DHT22;64457;51.976;9.834;2023-05-10T13:05:47;23.00;87.10
75824;DHT22;64457;51.976;9.834;2023-05-10T13:08:14;23.20;86.60
75824;DHT22;64457;51.976;9.834;2023-05-10T13:10:41;22.80;86.10
75824;DHT22;64457;51.976;9.834;2023-05-10T13:13:08;22.60;86.30
75824;DHT22;64457;51.976;9.834;2023-05-10T13:15:37;22.80;88.20
75824;DHT22;64457;51.976;9.834;2023-05-10T13:18:04;23.10;84.30
75824;DHT22;64457;51.976;9.834;2023-05-10T13:20:32;23.10;81.20
75824;DHT22;64457;51.976;9.834;2023-05-10T13:22:59;23.10;81.60
75824;DHT22;64457;51.976;9.834;2023-05-10T13:25:26;22.70;84.20
75824;DHT22;64457;51.976;9.834;2023-05-10T13:27:53;22.50;85.30
75824;DHT22;64457;51.976;9.834;2023-05-10T13:30:20;22.20;87.60
75824;DHT22;64457;51.976;9.834;2023-05-10T13:32:50;21.90;89.20
75824;DHT22;64457;51.976;9.834;2023-05-10T13:35:18;22.10;86.30
75824;DHT22;64457;51.976;9.834;2023-05-10T13:37:45;22.10;87.00
75824;DHT22;64457;51.976;9.834;2023-05-10T13:40:12;21.80;86.20
75824;DHT22;64457;51.976;9.834;2023-05-10T13:42:41;22.10;87.40
75824;DHT22;64457;51.976;9.834;2023-05-10T13:45:09;22.30;85.10
75824;DHT22;64457;51.976;9.834;2023-05-10T13:47:37;22.20;85.70
75824;DHT22;64457;51.976;9.834;2023-05-10T13:50:07;22.50;87.20
75824;DHT22;64457;51.976;9.834;2023-05-10T13:52:34;22.10;86.10
75824;DHT22;64457;51.976;9.834;2023-05-10T13:55:02;22.00;86.40
75824;DHT22;64457;51.976;9.834;2023-05-10T13:57:29;22.40;87.10
75824;DHT22;64457;51.976;9.834;2023-05-10T13:59:57;22.90;87.20
75824;DHT22;64457;51.976;9.834;2023-05-10T14:02:24;22.60;87.00
75824;DHT22;64457;51.976;9.834;2023-05-10T14:04:53;22.70;87.90
75824;DHT22;64457;51.976;9.834;2023-05-10T14:07:21;22.30;87.20
75824;DHT22;64457;51.976;9.834;2023-05-10T14:09:48;22.40;88.40
75824;DHT22;64457;51.976;9.834;2023-05-10T14:12:16;22.20;86.90
75824;DHT22;64457;51.976;9.834;2023-05-10T14:14:43;22.30;87.50
75824;DHT22;64457;51.976;9.834;2023-05-10T14:17:11;22.40;86.20
75824;DHT22;64457;51.976;9.834;2023-05-10T14:19:38;22.90;86.30
75824;DHT22;64457;51.976;9.834;2023-05-10T14:22:08;23.10;86.10
75824;DHT22;64457;51.976;9.834;2023-05-10T14:24:38;23.20;82.80
75824;DHT22;64457;51.976;9.834;2023-05-10T14:27:05;23.40;83.90
75824;DHT22;64457;51.976;9.834;2023-05-10T14:29:32;22.80;84.60
75824;DHT22;64457;51.976;9.834;2023-05-10T14:31:59;22.90;85.70
75824;DHT22;64457;51.976;9.834;2023-05-10T14:34:27;23.20;84.10
75824;DHT22;64457;51.976;9.834;2023-05-10T14:36:54;22.60;84.70
75824;DHT22;64457;51.976;9.834;2023-05-10T14:39:22;22.70;85.20
75824;DHT22;64457;51.976;9.834;2023-05-10T14:41:50;23.10;85.10
75824;DHT22;64457;51.976;9.834;2023-05-10T14:44:18;23.60;82.60
75824;DHT22;64457;51.976;9.834;2023-05-10T14:46:45;23.60;82.60
75824;DHT22;64457;51.976;9.834;2023-05-10T14:49:13;23.10;85.40
75824;DHT22;64457;51.976;9.834;2023-05-10T14:51:40;23.20;85.90
75824;DHT22;64457;51.976;9.834;2023-05-10T14:54:08;23.20;84.60
75824;DHT22;64457;51.976;9.834;2023-05-10T14:56:35;23.40;84.60
75824;DHT22;64457;51.976;9.834;2023-05-10T14:59:04;23.50;83.90
75824;DHT22;64457;51.976;9.834;2023-05-10T15:01:31;23.50;84.40
75824;DHT22;64457;51.976;9.834;2023-05-10T15:04:00;22.90;82.30
75824;DHT22;64457;51.976;9.834;2023-05-10T15:06:30;22.80;85.00
75824;DHT22;64457;51.976;9.834;2023-05-10T15:08:58;22.10;85.40
75824;DHT22;64457;51.976;9.834;2023-05-10T15:11:26;21.70;87.00
75824;DHT22;64457;51.976;9.834;2023-05-10T15:13:53;21.40;89.20
75824;DHT22;64457;51.976;9.834;2023-05-10T15:16:22;21.50;90.40
75824;DHT22;64457;51.976;9.834;2023-05-10T15:18:49;21.50;90.90
75824;DHT22;64457;51.976;9.834;2023-05-10T15:21:16;21.60;90.70
75824;DHT22;64457;51.976;9.834;2023-05-10T15:23:43;21.70;90.90
75824;DHT22;64457;51.976;9.834;2023-05-10T15:26:11;21.80;90.60
75824;DHT22;64457;51.976;9.834;2023-05-10T15:28:38;22.00;90.90
75824;DHT22;64457;51.976;9.834;2023-05-10T15:31:05;21.90;90.10
75824;DHT22;64457;51.976;9.834;2023-05-10T15:33:34;21.80;90.90
75824;DHT22;64457;51.976;9.834;2023-05-10T15:36:02;21.60;90.40
75824;DHT22;64457;51.976;9.834;2023-05-10T15:38:30;21.70;91.60
75824;DHT22;64457;51.976;9.834;2023-05-10T15:40:57;21.60;90.00
75824;DHT22;64457;51.976;9.834;2023-05-10T15:43:25;21.50;91.40
75824;DHT22;64457;51.976;9.834;2023-05-10T15:45:52;21.20;92.10
75824;DHT22;64457;51.976;9.834;2023-05-10T15:48:19;20.50;92.40